createdAt,value
2023-05-15T00:02:14.371Z,100.00
2023-05-15T00:04:47.633Z,100.00
2023-05-15T00:07:21.991Z,100.00
2023-05-15T00:09:54.788Z,100.00
2023-05-15T00:12:28.073Z,100.00
2023-05-15T00:15:00.970Z,100.00
2023-05-15T00:17:34.027Z,100.00
2023-05-15T00:20:09.964Z,100.00
2023-05-15T00:22:44.713Z,100.00
2023-05-15T00:25:19.777Z,100.00
2023-05-15T00:27:53.762Z,100.00
2023-05-15T00:30:26.606Z,100.00
2023-05-15T00:32:59.677Z,100.00
2023-05-15T00:35:33.554Z,100.00
2023-05-15T00:38:07.889Z,100.00
2023-05-15T00:40:44.779Z,100.00
2023-05-15T00:43:19.443Z,100.00
2023-05-15T00:45:53.005Z,100.00
2023-05-15T00:48:26.537Z,100.00
2023-05-15T00:51:00.891Z,100.00
2023-05-15T00:53:35.276Z,100.00
2023-05-15T00:56:10.626Z,100.00
2023-05-15T00:58:43.902Z,100.00
2023-05-15T01:01:18.884Z,100.00
2023-05-15T01:03:51.937Z,100.00
2023-05-15T01:06:26.850Z,100.00
2023-05-15T01:09:04.083Z,100.00
2023-05-15T01:11:39.261Z,100.00
2023-05-15T01:14:12.158Z,100.00
2023-05-15T01:16:45.136Z,100.00
2023-05-15T01:19:18.301Z,100.00
2023-05-15T01:22:17.386Z,99.70
2023-05-15T01:25:27.110Z,99.10
2023-05-15T01:28:06.786Z,100.00
2023-05-15T01:30:43.235Z,100.00
2023-05-15T01:33:22.025Z,100.00
2023-05-15T01:36:02.569Z,100.00
2023-05-15T01:38:40.852Z,100.00
2023-05-15T01:41:17.560Z,100.00
2023-05-15T01:44:00.996Z,100.00
2023-05-15T01:46:38.865Z,100.00
2023-05-15T01:49:14.837Z,100.00
2023-05-15T01:51:52.108Z,100.00
2023-05-15T01:54:28.949Z,100.00
2023-05-15T01:57:02.937Z,100.00
2023-05-15T01:59:38.372Z,100.00
2023-05-15T02:02:12.154Z,100.00
2023-05-15T02:04:48.757Z,100.00
2023-05-15T02:07:22.636Z,100.00
2023-05-15T02:09:56.539Z,100.00
2023-05-15T02:12:29.892Z,100.00
2023-05-15T02:15:05.195Z,100.00
2023-05-15T02:17:38.254Z,100.00
2023-05-15T02:20:12.054Z,100.00
2023-05-15T02:22:45.066Z,100.00
2023-05-15T02:25:18.851Z,100.00
2023-05-15T02:27:58.558Z,100.00
2023-05-15T02:30:39.511Z,100.00
2023-05-15T02:33:19.597Z,100.00
2023-05-15T02:35:58.544Z,100.00
2023-05-15T02:38:35.000Z,100.00
2023-05-15T02:41:09.347Z,100.00
2023-05-15T02:43:45.805Z,100.00
2023-05-15T02:46:21.512Z,100.00
2023-05-15T02:48:57.314Z,100.00
2023-05-15T02:51:30.574Z,100.00
2023-05-15T02:54:04.237Z,100.00
2023-05-15T02:56:40.012Z,100.00
2023-05-15T02:59:13.504Z,100.00
2023-05-15T03:01:48.001Z,100.00
2023-05-15T03:04:22.562Z,100.00
2023-05-15T03:06:55.854Z,100.00
2023-05-15T03:09:28.752Z,100.00
2023-05-15T03:12:01.642Z,100.00
2023-05-15T03:14:34.649Z,100.00
2023-05-15T03:17:10.800Z,100.00
2023-05-15T03:19:43.713Z,100.00
2023-05-15T03:22:16.837Z,100.00
2023-05-15T03:24:50.119Z,100.00
2023-05-15T03:27:22.947Z,100.00
2023-05-15T03:29:55.936Z,100.00
2023-05-15T03:32:30.454Z,100.00
2023-05-15T03:35:03.408Z,100.00
2023-05-15T03:37:36.765Z,100.00
2023-05-15T03:40:10.692Z,100.00
2023-05-15T03:42:44.326Z,100.00
2023-05-15T03:45:21.006Z,100.00
2023-05-15T03:47:56.301Z,100.00
2023-05-15T03:50:31.025Z,100.00
2023-05-15T03:53:05.443Z,100.00
2023-05-15T03:55:41.359Z,100.00
2023-05-15T03:58:14.449Z,100.00
2023-05-15T04:00:47.373Z,100.00
2023-05-15T04:03:21.831Z,100.00
2023-05-15T04:05:55.025Z,100.00
2023-05-15T04:08:28.048Z,100.00
2023-05-15T04:11:01.167Z,100.00
2023-05-15T04:13:34.135Z,100.00
2023-05-15T04:16:08.674Z,100.00
2023-05-15T04:18:42.956Z,100.00
2023-05-15T04:21:15.980Z,100.00
2023-05-15T04:23:48.742Z,100.00
2023-05-15T04:26:21.680Z,100.00
2023-05-15T04:31:36.062Z,100.00
2023-05-15T04:34:10.723Z,100.00
2023-05-15T04:36:43.739Z,100.00
2023-05-15T04:39:16.741Z,100.00
2023-05-15T04:41:50.046Z,100.00
2023-05-15T04:44:23.022Z,100.00
2023-05-15T04:46:55.932Z,100.00
2023-05-15T04:49:30.182Z,100.00
2023-05-15T04:52:03.129Z,100.00
2023-05-15T04:54:36.161Z,100.00
2023-05-15T04:57:09.286Z,100.00
2023-05-15T04:59:42.214Z,100.00
2023-05-15T05:02:15.286Z,100.00
2023-05-15T05:04:49.860Z,100.00
2023-05-15T05:07:22.790Z,100.00
2023-05-15T05:09:55.896Z,100.00
2023-05-15T05:12:28.880Z,100.00
2023-05-15T05:15:01.896Z,100.00
2023-05-15T05:17:34.975Z,100.00
2023-05-15T05:20:12.988Z,100.00
2023-05-15T05:22:46.333Z,100.00
2023-05-15T05:25:19.721Z,100.00
2023-05-15T05:27:52.786Z,100.00
2023-05-15T05:30:25.724Z,100.00
2023-05-15T05:32:58.664Z,100.00
2023-05-15T05:35:33.214Z,100.00
2023-05-15T05:38:07.248Z,100.00
2023-05-15T05:40:40.141Z,100.00
2023-05-15T05:43:13.038Z,100.00
2023-05-15T05:45:46.147Z,100.00
2023-05-15T05:48:19.288Z,100.00
2023-05-15T05:50:53.873Z,100.00
2023-05-15T05:53:26.877Z,100.00
2023-05-15T05:55:59.806Z,100.00
2023-05-15T05:58:32.781Z,100.00
2023-05-15T06:01:06.358Z,100.00
2023-05-15T06:03:39.985Z,100.00
2023-05-15T06:06:14.251Z,100.00
2023-05-15T06:08:47.031Z,100.00
2023-05-15T06:11:19.912Z,100.00
2023-05-15T06:13:52.708Z,100.00
2023-05-15T06:16:25.591Z,100.00
2023-05-15T06:18:58.362Z,100.00
2023-05-15T06:21:32.739Z,100.00
2023-05-15T06:24:06.011Z,100.00
2023-05-15T06:26:38.930Z,100.00
2023-05-15T06:29:11.763Z,100.00
2023-05-15T06:31:44.613Z,100.00
2023-05-15T06:34:17.402Z,100.00
2023-05-15T06:36:52.570Z,100.00
2023-05-15T06:39:25.729Z,100.00
2023-05-15T06:42:01.429Z,100.00
2023-05-15T06:44:36.263Z,100.00
2023-05-15T06:47:09.103Z,100.00
2023-05-15T06:49:42.072Z,100.00
2023-05-15T06:52:16.272Z,100.00
2023-05-15T06:54:49.087Z,100.00
2023-05-15T06:57:21.850Z,100.00
2023-05-15T06:59:54.726Z,100.00
2023-05-15T07:02:27.602Z,99.03
2023-05-15T07:05:00.607Z,99.72
2023-05-15T07:07:34.830Z,96.71
2023-05-15T07:10:09.299Z,96.55
2023-05-15T07:12:42.077Z,97.60
2023-05-15T07:15:14.855Z,94.35
2023-05-15T07:17:47.827Z,92.88
2023-05-15T07:20:20.743Z,91.93
2023-05-15T07:22:56.653Z,90.44
2023-05-15T07:25:29.984Z,87.04
2023-05-15T07:28:03.356Z,86.28
2023-05-15T07:30:36.514Z,85.90
2023-05-15T07:33:09.251Z,84.94
2023-05-15T07:35:42.264Z,82.86
2023-05-15T07:38:16.644Z,82.94
2023-05-15T07:40:49.434Z,85.01
2023-05-15T07:43:22.200Z,83.60
2023-05-15T07:45:55.035Z,83.58
2023-05-15T07:48:27.848Z,83.20
2023-05-15T07:51:00.829Z,81.36
2023-05-15T07:53:35.002Z,80.19
2023-05-15T07:56:08.458Z,80.74
2023-05-15T07:58:41.218Z,82.04
2023-05-15T08:01:13.957Z,82.38
2023-05-15T08:03:47.009Z,81.37
2023-05-15T08:06:19.994Z,79.02
2023-05-15T08:08:54.283Z,78.06
2023-05-15T08:11:28.189Z,78.07
2023-05-15T08:14:01.024Z,78.60
2023-05-15T08:16:33.948Z,78.78
2023-05-15T08:19:07.906Z,75.55
2023-05-15T08:21:40.941Z,77.57
2023-05-15T08:24:15.449Z,73.32
2023-05-15T08:26:48.289Z,74.03
2023-05-15T08:29:21.210Z,70.91
2023-05-15T08:31:54.166Z,71.07
2023-05-15T08:34:26.924Z,71.20
2023-05-15T08:37:00.304Z,72.40
2023-05-15T08:39:34.639Z,72.40
2023-05-15T08:42:11.963Z,69.27
2023-05-15T08:44:45.508Z,65.96
2023-05-15T08:47:20.075Z,67.92
2023-05-15T08:50:00.690Z,66.13
2023-05-15T08:52:34.292Z,67.49
2023-05-15T08:55:10.003Z,66.52
2023-05-15T08:57:43.982Z,68.63
2023-05-15T09:00:20.980Z,67.50
2023-05-15T09:02:55.748Z,65.66
2023-05-15T09:05:29.631Z,65.58
2023-05-15T09:08:06.637Z,62.47
2023-05-15T09:10:41.327Z,61.73
2023-05-15T09:13:15.814Z,60.79
2023-05-15T09:15:48.886Z,61.79
2023-05-15T09:18:21.838Z,61.68
2023-05-15T09:20:56.195Z,60.19
2023-05-15T09:23:29.342Z,59.04
2023-05-15T09:26:04.739Z,57.66
2023-05-15T09:28:37.603Z,58.61
2023-05-15T09:31:10.409Z,57.07
2023-05-15T09:33:44.025Z,56.89
2023-05-15T09:36:22.852Z,58.31
2023-05-15T09:38:59.856Z,56.26
2023-05-15T09:41:34.161Z,56.23
2023-05-15T09:44:21.275Z,54.83
2023-05-15T09:46:55.092Z,55.61
2023-05-15T09:49:30.980Z,54.48
2023-05-15T09:52:08.309Z,52.97
2023-05-15T09:54:41.820Z,53.73
2023-05-15T09:57:16.216Z,56.22
2023-05-15T09:59:50.044Z,53.99
2023-05-15T10:02:28.163Z,56.63
2023-05-15T10:05:01.341Z,55.86
2023-05-15T10:07:36.805Z,55.22
2023-05-15T10:10:10.620Z,54.58
2023-05-15T10:12:45.834Z,54.16
2023-05-15T10:15:21.480Z,52.53
2023-05-15T10:17:54.630Z,53.92
2023-05-15T10:20:28.167Z,53.66
2023-05-15T10:23:02.541Z,52.05
2023-05-15T10:25:42.398Z,50.29
2023-05-15T10:28:18.319Z,50.89
2023-05-15T10:30:52.296Z,50.54
2023-05-15T10:33:25.402Z,49.60
2023-05-15T10:36:00.109Z,49.57
2023-05-15T10:38:34.162Z,50.27
2023-05-15T10:41:17.233Z,48.20
2023-05-15T10:43:54.580Z,51.33
2023-05-15T10:46:29.024Z,49.82
2023-05-15T10:49:02.405Z,50.33
2023-05-15T10:51:36.928Z,50.00
2023-05-15T10:54:11.635Z,51.94
2023-05-15T10:56:44.771Z,52.87
2023-05-15T10:59:19.394Z,55.31
2023-05-15T11:01:53.232Z,57.18
2023-05-15T11:04:27.525Z,60.53
2023-05-15T11:15:22.396Z,78.58
2023-05-15T11:18:06.667Z,78.54
2023-05-15T11:21:25.246Z,77.36
2023-05-15T11:34:56.723Z,87.96
2023-05-15T11:38:15.815Z,85.39
2023-05-15T11:41:50.862Z,88.30
2023-05-15T11:51:54.404Z,87.41
2023-05-15T11:58:24.473Z,88.03
2023-05-15T12:02:37.484Z,82.06
2023-05-15T12:05:59.802Z,76.88
2023-05-15T12:09:08.041Z,76.52
2023-05-15T12:12:27.662Z,76.00
2023-05-15T12:15:36.720Z,73.79
2023-05-15T12:18:45.432Z,75.70
2023-05-15T12:21:37.702Z,71.76
2023-05-15T12:24:22.225Z,68.61
2023-05-15T12:27:03.985Z,70.88
2023-05-15T12:29:41.618Z,69.01
2023-05-15T12:32:15.044Z,69.66
2023-05-15T12:34:49.087Z,68.60
2023-05-15T12:37:23.107Z,73.62
2023-05-15T12:40:00.954Z,74.93
2023-05-15T12:42:40.073Z,71.86
2023-05-15T12:45:15.409Z,70.22
2023-05-15T12:47:55.375Z,69.19
2023-05-15T12:50:30.840Z,68.45
2023-05-15T12:53:06.591Z,70.41
2023-05-15T12:55:41.877Z,69.94
2023-05-15T12:58:18.760Z,70.45
2023-05-15T13:00:52.945Z,71.87
2023-05-15T13:03:28.029Z,69.72
2023-05-15T13:06:03.788Z,71.57
2023-05-15T13:08:41.796Z,68.31
2023-05-15T13:11:16.477Z,68.28
2023-05-15T13:13:51.079Z,68.42
2023-05-15T13:16:27.088Z,67.69
2023-05-15T13:19:00.258Z,67.64
2023-05-15T13:21:33.260Z,68.25
2023-05-15T13:24:09.988Z,67.83
2023-05-15T13:27:20.354Z,65.83
2023-05-15T13:29:55.654Z,67.02
2023-05-15T13:32:29.006Z,65.12
2023-05-15T13:35:02.270Z,64.24
2023-05-15T13:37:35.176Z,62.73
2023-05-15T13:40:11.062Z,64.47
2023-05-15T13:44:01.568Z,61.61
2023-05-15T13:46:39.412Z,62.15
2023-05-15T13:49:12.371Z,62.45
2023-05-15T13:51:45.253Z,59.26
2023-05-15T13:54:18.105Z,58.78
2023-05-15T13:56:51.036Z,58.78
2023-05-15T13:59:23.892Z,56.88
2023-05-15T14:01:58.163Z,54.77
2023-05-15T14:04:31.032Z,54.42
2023-05-15T14:07:03.886Z,54.83
2023-05-15T14:09:36.791Z,54.62
2023-05-15T14:12:11.341Z,52.62
2023-05-15T14:14:45.874Z,55.54
2023-05-15T14:17:20.021Z,53.83
2023-05-15T14:19:53.185Z,52.42
2023-05-15T14:22:25.978Z,52.35
2023-05-15T14:24:59.011Z,51.66
2023-05-15T14:27:32.395Z,53.55
2023-05-15T14:30:06.486Z,54.20
2023-05-15T14:32:41.459Z,53.68
2023-05-15T14:35:15.185Z,59.34
2023-05-15T14:37:48.041Z,65.14
2023-05-15T14:40:20.899Z,65.88
2023-05-15T14:42:53.920Z,65.25
2023-05-15T14:45:26.964Z,62.81
2023-05-15T14:48:01.482Z,61.49
2023-05-15T14:50:34.416Z,60.28
2023-05-15T14:53:07.446Z,60.66
2023-05-15T14:55:40.244Z,60.54
2023-05-15T14:58:13.006Z,57.89
2023-05-15T15:00:46.501Z,59.79
2023-05-15T15:03:22.041Z,59.54
2023-05-15T15:05:54.994Z,59.10
2023-05-15T15:08:27.750Z,57.57
2023-05-15T15:11:00.497Z,59.02
2023-05-15T15:13:33.352Z,62.20
2023-05-15T15:16:08.298Z,65.59
2023-05-15T15:18:46.534Z,75.50
2023-05-15T15:21:22.775Z,79.07
2023-05-15T15:23:56.590Z,80.13
2023-05-15T15:26:30.100Z,81.10
2023-05-15T15:29:03.596Z,80.69
2023-05-15T15:31:37.081Z,83.95
2023-05-15T15:34:12.456Z,87.92
2023-05-15T15:36:45.536Z,88.86
2023-05-15T15:39:18.594Z,88.92
2023-05-15T15:41:52.392Z,88.47
2023-05-15T15:44:25.921Z,80.44
2023-05-15T15:46:59.564Z,81.83
2023-05-15T15:50:19.928Z,79.76
2023-05-15T15:52:55.201Z,77.53
2023-05-15T15:55:28.627Z,80.92
2023-05-15T15:58:01.975Z,85.61
2023-05-15T16:00:34.996Z,80.79
2023-05-15T16:03:08.193Z,78.26
2023-05-15T16:05:41.795Z,79.96
2023-05-15T16:08:16.791Z,80.91
2023-05-15T16:10:49.773Z,84.18
2023-05-15T16:13:22.834Z,83.09
2023-05-15T16:15:55.914Z,84.11
2023-05-15T16:18:28.909Z,84.16
2023-05-15T16:21:02.275Z,85.82
2023-05-15T16:23:37.164Z,85.57
2023-05-15T16:26:11.374Z,85.33
2023-05-15T16:28:44.411Z,86.21
2023-05-15T16:31:17.646Z,85.59
2023-05-15T16:33:54.450Z,86.51
2023-05-15T16:36:27.878Z,88.02
2023-05-15T16:39:04.671Z,86.93
2023-05-15T16:41:45.015Z,86.89
2023-05-15T16:44:18.278Z,88.30
2023-05-15T16:46:55.112Z,85.65
2023-05-15T16:49:28.377Z,84.36
2023-05-15T16:52:01.570Z,83.66
2023-05-15T16:54:36.445Z,83.35
2023-05-15T16:57:09.761Z,86.12
2023-05-15T16:59:42.908Z,86.57
2023-05-15T17:02:16.011Z,86.53
2023-05-15T17:04:49.032Z,85.84
2023-05-15T17:07:21.940Z,86.71
2023-05-15T17:09:56.456Z,88.42
2023-05-15T17:12:29.672Z,88.57
2023-05-15T17:15:09.184Z,86.79
2023-05-15T17:17:42.241Z,87.69
2023-05-15T17:20:15.419Z,88.44
2023-05-15T17:22:48.327Z,88.67
2023-05-15T17:25:22.811Z,89.16
2023-05-15T17:27:55.764Z,89.40
2023-05-15T17:30:28.905Z,89.37
2023-05-15T17:33:02.062Z,89.14
2023-05-15T17:35:35.247Z,89.27
2023-05-15T17:38:08.827Z,89.88
2023-05-15T17:40:43.481Z,89.67
2023-05-15T17:43:17.234Z,90.49
2023-05-15T17:45:50.950Z,90.88
2023-05-15T17:48:24.256Z,91.06
2023-05-15T17:50:57.474Z,89.56
2023-05-15T17:53:31.036Z,88.87
2023-05-15T17:56:06.124Z,91.30
2023-05-15T17:58:39.377Z,92.34
2023-05-15T18:01:15.986Z,92.37
2023-05-15T18:03:49.606Z,91.43
2023-05-15T18:06:23.474Z,92.71
2023-05-15T18:09:00.304Z,93.51
2023-05-15T18:11:38.345Z,91.79
2023-05-15T18:14:16.474Z,93.87
2023-05-15T18:17:01.451Z,93.98
2023-05-15T18:20:21.551Z,96.11
2023-05-15T18:23:03.247Z,95.69
2023-05-15T18:25:36.977Z,95.61
2023-05-15T18:28:11.654Z,96.00
2023-05-15T18:30:46.731Z,93.81
2023-05-15T18:33:22.799Z,94.14
2023-05-15T18:35:57.914Z,95.63
2023-05-15T18:38:31.119Z,95.35
2023-05-15T18:41:04.545Z,95.19
2023-05-15T18:43:39.591Z,95.65
2023-05-15T18:46:15.463Z,96.29
2023-05-15T18:48:51.071Z,96.39
2023-05-15T18:51:31.506Z,96.22
2023-05-15T18:54:08.283Z,95.14
2023-05-15T18:56:46.178Z,95.21
2023-05-15T18:59:24.794Z,95.47
2023-05-15T19:02:01.198Z,95.20
2023-05-15T19:04:34.488Z,94.19
2023-05-15T19:07:08.359Z,94.01
2023-05-15T19:10:43.773Z,92.81
2023-05-15T19:13:33.339Z,91.56
2023-05-15T19:16:35.285Z,90.58
2023-05-15T19:19:19.245Z,90.77
2023-05-15T19:22:02.261Z,90.92
2023-05-15T19:24:49.317Z,91.58
2023-05-15T19:27:26.478Z,92.49
2023-05-15T19:29:59.883Z,95.45
2023-05-15T19:32:35.761Z,99.65
2023-05-15T19:35:09.891Z,100.00
2023-05-15T19:37:43.521Z,100.00
2023-05-15T19:40:18.681Z,100.00
2023-05-15T19:42:51.831Z,100.00
2023-05-15T19:45:24.867Z,100.00
2023-05-15T19:48:00.651Z,100.00
2023-05-15T19:50:33.798Z,100.00
2023-05-15T19:53:07.730Z,100.00
2023-05-15T19:55:40.973Z,100.00
2023-05-15T19:58:13.944Z,100.00
2023-05-15T20:00:48.160Z,100.00
2023-05-15T20:03:22.847Z,100.00
2023-05-15T20:05:55.975Z,100.00
2023-05-15T20:08:29.354Z,100.00
2023-05-15T20:11:02.366Z,100.00
2023-05-15T20:13:37.478Z,100.00
2023-05-15T20:16:12.651Z,100.00
2023-05-15T20:18:48.019Z,100.00
2023-05-15T20:21:21.000Z,100.00
2023-05-15T20:23:53.958Z,100.00
2023-05-15T20:26:27.197Z,100.00
2023-05-15T20:29:00.136Z,100.00
2023-05-15T20:31:33.703Z,100.00
2023-05-15T20:34:08.236Z,100.00
2023-05-15T20:36:41.570Z,100.00
2023-05-15T20:39:14.594Z,100.00
2023-05-15T20:41:47.676Z,100.00
2023-05-15T20:44:20.969Z,100.00
2023-05-15T20:46:54.036Z,100.00
2023-05-15T20:49:28.672Z,100.00
2023-05-15T20:52:02.061Z,100.00
2023-05-15T20:54:35.039Z,100.00
2023-05-15T20:57:08.178Z,100.00
2023-05-15T20:59:41.234Z,100.00
2023-05-15T21:02:14.256Z,100.00
2023-05-15T21:05:29.895Z,100.00
2023-05-15T21:08:54.556Z,100.00
2023-05-15T21:12:00.205Z,100.00
2023-05-15T21:14:50.465Z,100.00
2023-05-15T21:17:49.092Z,100.00
2023-05-15T21:21:02.850Z,100.00
2023-05-15T21:24:11.751Z,100.00
2023-05-15T21:30:49.628Z,100.00
2023-05-15T21:33:22.842Z,100.00
2023-05-15T21:35:57.460Z,100.00
2023-05-15T21:38:30.757Z,100.00
2023-05-15T21:41:04.005Z,100.00
2023-05-15T21:43:37.063Z,100.00
2023-05-15T21:46:10.256Z,100.00
2023-05-15T21:48:43.440Z,100.00
2023-05-15T21:51:18.189Z,100.00
2023-05-15T21:53:51.285Z,100.00
2023-05-15T21:56:24.545Z,100.00
2023-05-15T21:58:58.251Z,100.00
2023-05-15T22:01:31.637Z,100.00
2023-05-15T22:04:04.938Z,100.00
2023-05-15T22:06:40.427Z,100.00
2023-05-15T22:09:13.857Z,100.00
2023-05-15T22:11:47.225Z,100.00
2023-05-15T22:14:22.721Z,100.00
2023-05-15T22:16:56.131Z,100.00
2023-05-15T22:19:33.357Z,100.00
2023-05-15T22:22:08.252Z,100.00
2023-05-15T22:24:42.359Z,100.00
2023-05-15T22:27:16.856Z,100.00
2023-05-15T22:29:50.298Z,100.00
2023-05-15T22:32:23.684Z,100.00
2023-05-15T22:34:57.211Z,100.00
2023-05-15T22:37:32.214Z,100.00
2023-05-15T22:40:07.580Z,100.00
2023-05-15T22:42:40.704Z,100.00
2023-05-15T22:45:56.145Z,100.00
2023-05-15T22:48:29.502Z,100.00
2023-05-15T22:51:02.816Z,100.00
2023-05-15T22:53:37.277Z,100.00
2023-05-15T22:56:10.513Z,100.00
2023-05-15T22:58:43.706Z,100.00
2023-05-15T23:01:17.046Z,100.00
2023-05-15T23:03:50.402Z,100.00
2023-05-15T23:06:23.699Z,100.00
2023-05-15T23:08:58.527Z,100.00
2023-05-15T23:11:31.858Z,100.00
2023-05-15T23:14:04.973Z,100.00
2023-05-15T23:16:38.093Z,100.00
2023-05-15T23:19:11.560Z,100.00
2023-05-15T23:21:44.687Z,100.00
2023-05-15T23:24:19.218Z,100.00
2023-05-15T23:26:52.960Z,100.00
2023-05-15T23:29:26.529Z,100.00
2023-05-15T23:31:59.619Z,100.00
2023-05-15T23:34:32.693Z,100.00
2023-05-15T23:37:06.213Z,100.00
2023-05-15T23:39:40.733Z,100.00
2023-05-15T23:42:13.872Z,100.00
2023-05-15T23:44:47.076Z,100.00
2023-05-15T23:47:20.310Z,100.00
2023-05-15T23:49:53.432Z,100.00
2023-05-15T23:52:26.612Z,100.00
2023-05-15T23:55:01.876Z,100.00
2023-05-15T23:57:35.148Z,100.00
